createdAt,value
2019-06-15T00:00:56.402Z,95302.83
2019-06-15T00:03:27.562Z,95299.20
2019-06-15T00:05:58.970Z,95299.66
2019-06-15T00:08:31.403Z,95296.20
2019-06-15T00:11:02.699Z,95296.84
2019-06-15T00:13:34.054Z,95294.88
2019-06-15T00:16:05.495Z,95299.15
2019-06-15T00:18:36.687Z,95293.45
2019-06-15T00:21:08.098Z,95295.64
2019-06-15T00:23:39.317Z,95288.42
2019-06-15T00:26:11.028Z,95288.71
2019-06-15T00:28:42.256Z,95291.70
2019-06-15T00:31:13.613Z,95294.86
2019-06-15T00:33:44.796Z,95287.94
2019-06-15T00:36:16.038Z,95286.88
2019-06-15T00:38:47.441Z,95285.14
2019-06-15T00:41:18.682Z,95279.66
2019-06-15T00:43:49.960Z,95276.56
2019-06-15T00:46:21.324Z,95278.36
2019-06-15T00:48:52.689Z,95279.69
2019-06-15T00:51:23.878Z,95281.70
2019-06-15T00:53:54.874Z,95278.54
2019-06-15T00:56:26.083Z,95287.12
2019-06-15T00:58:57.484Z,95285.64
2019-06-15T01:01:28.802Z,95283.73
2019-06-15T01:03:59.979Z,95274.05
2019-06-15T01:06:31.413Z,95273.31
2019-06-15T01:09:02.556Z,95267.67
2019-06-15T01:11:35.743Z,95264.45
2019-06-15T01:14:07.357Z,95256.93
2019-06-15T01:16:38.621Z,95255.28
2019-06-15T01:19:09.803Z,95266.44
2019-06-15T01:21:41.393Z,95269.91
2019-06-15T01:24:12.634Z,95265.43
2019-06-15T01:26:43.832Z,95262.72
2019-06-15T01:29:15.051Z,95261.13
2019-06-15T01:31:46.224Z,95264.78
2019-06-15T01:34:17.445Z,95260.20
2019-06-15T01:36:48.714Z,95272.25
2019-06-15T01:39:20.007Z,95264.20
2019-06-15T01:41:51.502Z,95262.55
2019-06-15T01:44:23.737Z,95248.41
2019-06-15T01:46:55.063Z,95260.52
2019-06-15T01:49:26.342Z,95265.41
2019-06-15T01:51:57.774Z,95276.32
2019-06-15T01:54:29.001Z,95275.00
2019-06-15T01:57:00.236Z,95277.02
2019-06-15T01:59:31.420Z,95272.34
2019-06-15T02:02:02.636Z,95281.00
2019-06-15T02:04:33.789Z,95284.45
2019-06-15T02:07:05.443Z,95286.27
2019-06-15T02:09:36.674Z,95276.40
2019-06-15T02:12:07.978Z,95283.84
2019-06-15T02:14:39.452Z,95286.17
2019-06-15T02:17:11.845Z,95283.95
2019-06-15T02:19:43.413Z,95286.69
2019-06-15T02:22:15.610Z,95290.96
2019-06-15T02:24:46.807Z,95286.80
2019-06-15T02:27:18.382Z,95283.94
2019-06-15T02:29:49.591Z,95282.92
2019-06-15T02:32:21.188Z,95281.80
2019-06-15T02:34:52.467Z,95277.23
2019-06-15T02:37:23.763Z,95281.72
2019-06-15T02:39:55.104Z,95274.47
2019-06-15T02:42:26.443Z,95279.96
2019-06-15T02:44:57.793Z,95279.88
2019-06-15T02:47:29.224Z,95281.20
2019-06-15T02:50:00.503Z,95280.38
2019-06-15T02:52:31.915Z,95289.34
2019-06-15T02:55:03.395Z,95286.30
2019-06-15T02:57:34.685Z,95284.97
2019-06-15T03:00:06.543Z,95287.70
2019-06-15T03:02:37.752Z,95290.47
2019-06-15T03:05:09.763Z,95295.55
2019-06-15T03:07:41.438Z,95298.20
2019-06-15T03:10:12.820Z,95296.58
2019-06-15T03:12:45.049Z,95299.00
2019-06-15T03:15:17.841Z,95293.91
2019-06-15T03:17:50.189Z,95300.75
2019-06-15T03:20:21.537Z,95309.80
2019-06-15T03:22:52.786Z,95307.07
2019-06-15T03:25:25.006Z,95305.92
2019-06-15T03:27:56.253Z,95301.77
2019-06-15T03:30:27.485Z,95302.48
2019-06-15T03:32:58.673Z,95296.08
2019-06-15T03:35:30.033Z,95300.02
2019-06-15T03:38:01.487Z,95299.33
2019-06-15T03:40:32.680Z,95294.02
2019-06-15T03:43:04.095Z,95293.12
2019-06-15T03:45:35.335Z,95293.83
2019-06-15T03:48:06.814Z,95298.20
2019-06-15T03:50:37.977Z,95303.91
2019-06-15T03:53:09.392Z,95300.24
2019-06-15T03:55:41.907Z,95311.42
2019-06-15T03:58:13.074Z,95311.64
2019-06-15T04:00:55.864Z,95312.16
2019-06-15T04:03:27.187Z,95308.91
2019-06-15T04:05:58.339Z,95304.30
2019-06-15T04:08:29.588Z,95303.10
2019-06-15T04:11:00.783Z,95304.30
2019-06-15T04:13:32.069Z,95303.20
2019-06-15T04:16:03.442Z,95306.25
2019-06-15T04:18:34.651Z,95302.80
2019-06-15T04:21:06.110Z,95304.33
2019-06-15T04:23:37.620Z,95308.80
2019-06-15T04:26:08.812Z,95300.53
2019-06-15T04:28:40.063Z,95313.14
2019-06-15T04:31:11.172Z,95315.48
2019-06-15T04:33:42.612Z,95314.43
2019-06-15T04:36:13.893Z,95320.14
2019-06-15T04:38:45.456Z,95318.84
2019-06-15T04:41:16.708Z,95322.52
2019-06-15T04:43:47.946Z,95317.67
2019-06-15T04:46:18.897Z,95318.88
2019-06-15T04:48:49.840Z,95310.14
2019-06-15T04:51:21.753Z,95320.20
2019-06-15T04:53:52.624Z,95316.06
2019-06-15T04:56:23.898Z,95322.28
2019-06-15T04:58:55.080Z,95321.63
2019-06-15T05:01:25.986Z,95323.20
2019-06-15T05:03:56.889Z,95323.27
2019-06-15T05:06:27.824Z,95315.97
2019-06-15T05:08:58.852Z,95313.59
2019-06-15T05:11:30.074Z,95312.11
2019-06-15T05:14:01.212Z,95310.34
2019-06-15T05:16:32.466Z,95306.05
2019-06-15T05:19:03.473Z,95310.55
2019-06-15T05:21:34.584Z,95309.48
2019-06-15T05:24:08.541Z,95306.59
2019-06-15T05:26:38.213Z,95309.17
2019-06-15T05:29:09.244Z,95309.49
2019-06-15T05:31:40.133Z,95305.68
2019-06-15T05:34:11.503Z,95307.02
2019-06-15T05:36:42.469Z,95305.11
2019-06-15T05:39:13.510Z,95310.35
2019-06-15T05:41:44.483Z,95309.58
2019-06-15T05:44:15.474Z,95301.07
2019-06-15T05:46:46.428Z,95311.44
2019-06-15T05:49:17.447Z,95302.72
2019-06-15T05:51:48.527Z,95300.06
2019-06-15T05:54:19.710Z,95295.33
2019-06-15T05:56:50.775Z,95297.31
2019-06-15T05:59:21.870Z,95288.70
2019-06-15T06:01:53.005Z,95293.72
2019-06-15T06:04:24.515Z,95297.74
2019-06-15T06:06:55.620Z,95298.04
2019-06-15T06:09:27.286Z,95297.42
2019-06-15T06:11:58.684Z,95298.41
2019-06-15T06:14:30.136Z,95285.59
2019-06-15T06:17:01.482Z,95288.65
2019-06-15T06:19:32.910Z,95286.80
2019-06-15T06:22:04.336Z,95287.38
2019-06-15T06:24:36.639Z,95280.96
2019-06-15T06:27:08.247Z,95281.88
2019-06-15T06:29:39.654Z,95274.42
2019-06-15T06:32:11.088Z,95272.45
2019-06-15T06:34:42.807Z,95271.92
2019-06-15T06:37:14.710Z,95268.78
2019-06-15T06:39:46.258Z,95262.75
2019-06-15T06:42:18.169Z,95263.20
2019-06-15T06:44:50.019Z,95263.62
2019-06-15T06:47:21.748Z,95261.48
2019-06-15T06:49:53.602Z,95263.03
2019-06-15T06:52:25.436Z,95265.72
2019-06-15T06:54:57.124Z,95263.58
2019-06-15T06:57:29.307Z,95256.83
2019-06-15T07:00:01.029Z,95252.59
2019-06-15T07:02:32.937Z,95252.21
2019-06-15T07:05:05.117Z,95252.73
2019-06-15T07:07:37.015Z,95251.20
2019-06-15T07:10:09.788Z,95252.06
2019-06-15T07:12:41.800Z,95260.78
2019-06-15T07:15:13.727Z,95261.88
2019-06-15T07:17:45.273Z,95258.38
2019-06-15T07:20:17.057Z,95252.78
2019-06-15T07:22:48.766Z,95251.16
2019-06-15T07:25:20.346Z,95251.23
2019-06-15T07:28:06.897Z,95250.94
2019-06-15T07:30:24.962Z,95249.27
2019-06-15T07:32:56.370Z,95248.55
2019-06-15T07:35:27.810Z,95246.25
2019-06-15T07:37:59.143Z,95245.52
2019-06-15T07:40:31.569Z,95241.69
2019-06-15T07:43:02.935Z,95240.84
2019-06-15T07:45:34.462Z,95235.97
2019-06-15T07:48:06.163Z,95233.22
2019-06-15T07:50:37.808Z,95228.55
2019-06-15T07:53:09.692Z,95226.81
2019-06-15T07:55:41.197Z,95223.83
2019-06-15T07:58:24.055Z,95224.91
2019-06-15T08:00:46.909Z,95224.17
2019-06-15T08:03:18.582Z,95224.94
2019-06-15T08:05:50.439Z,95222.13
2019-06-15T08:08:22.025Z,95223.34
2019-06-15T08:10:54.548Z,95234.31
2019-06-15T08:13:26.095Z,95230.42
2019-06-15T08:15:57.622Z,95239.41
2019-06-15T08:18:29.080Z,95238.44
2019-06-15T08:21:00.432Z,95238.70
2019-06-15T08:23:32.029Z,95240.05
2019-06-15T08:26:03.967Z,95231.91
2019-06-15T08:28:40.375Z,95230.95
2019-06-15T08:31:08.727Z,95229.08
2019-06-15T08:33:40.304Z,95221.52
2019-06-15T08:36:11.863Z,95224.05
2019-06-15T08:38:43.316Z,95220.71
2019-06-15T08:41:15.124Z,95216.44
2019-06-15T08:43:46.771Z,95212.74
2019-06-15T08:46:18.107Z,95216.56
2019-06-15T08:48:49.630Z,95204.86
2019-06-15T08:51:21.528Z,95206.56
2019-06-15T08:53:53.017Z,95212.21
2019-06-15T08:56:24.666Z,95209.98
2019-06-15T08:58:56.200Z,95215.20
2019-06-15T09:01:27.879Z,95208.83
2019-06-15T09:03:59.853Z,95205.98
2019-06-15T09:06:31.236Z,95198.52
2019-06-15T09:09:02.561Z,95192.20
2019-06-15T09:11:35.680Z,95193.36
2019-06-15T09:14:07.056Z,95203.83
2019-06-15T09:16:38.597Z,95199.16
2019-06-15T09:19:09.787Z,95199.55
2019-06-15T09:21:41.292Z,95188.55
2019-06-15T09:24:12.528Z,95191.20
2019-06-15T09:26:46.347Z,95176.66
2019-06-15T09:29:17.364Z,95184.28
2019-06-15T09:31:49.037Z,95180.83
2019-06-15T09:34:20.630Z,95191.56
2019-06-15T09:36:52.258Z,95180.80
2019-06-15T09:39:23.387Z,95178.46
2019-06-15T09:41:54.716Z,95179.66
2019-06-15T09:44:26.023Z,95177.05
2019-06-15T09:46:57.205Z,95172.62
2019-06-15T09:49:28.487Z,95172.48
2019-06-15T09:51:59.607Z,95174.25
2019-06-15T09:54:31.252Z,95176.08
2019-06-15T09:57:02.734Z,95169.07
2019-06-15T09:59:34.166Z,95166.05
2019-06-15T10:02:05.662Z,95169.23
2019-06-15T10:04:37.340Z,95168.50
2019-06-15T10:07:08.944Z,95163.70
2019-06-15T10:09:40.237Z,95161.48
2019-06-15T10:12:11.695Z,95164.06
2019-06-15T10:14:42.680Z,95152.86
2019-06-15T10:17:14.151Z,95155.42
2019-06-15T10:19:45.380Z,95154.49
2019-06-15T10:22:17.004Z,95155.36
2019-06-15T10:24:48.053Z,95147.33
2019-06-15T10:27:19.459Z,95155.22
2019-06-15T10:29:50.582Z,95147.41
2019-06-15T10:32:21.910Z,95147.27
2019-06-15T10:34:52.897Z,95145.12
2019-06-15T10:37:23.900Z,95140.00
2019-06-15T10:39:55.492Z,95135.05
2019-06-15T10:42:26.805Z,95143.61
2019-06-15T10:44:58.077Z,95142.77
2019-06-15T10:47:29.363Z,95126.65
2019-06-15T10:50:00.463Z,95132.66
2019-06-15T10:52:31.473Z,95122.92
2019-06-15T10:55:02.415Z,95123.47
2019-06-15T10:57:33.699Z,95119.95
2019-06-15T11:00:06.372Z,95118.87
2019-06-15T11:02:37.437Z,95113.52
2019-06-15T11:05:08.781Z,95117.84
2019-06-15T11:07:39.872Z,95119.72
2019-06-15T11:10:12.721Z,95111.61
2019-06-15T11:12:46.784Z,95108.23
2019-06-15T11:15:17.116Z,95097.11
2019-06-15T11:17:48.644Z,95092.87
2019-06-15T11:20:19.636Z,95094.64
2019-06-15T11:22:51.034Z,95089.08
2019-06-15T11:25:22.396Z,95085.77
2019-06-15T11:27:53.400Z,95078.98
2019-06-15T11:30:24.571Z,95078.17
2019-06-15T11:32:55.846Z,95077.03
2019-06-15T11:35:26.857Z,95074.33
2019-06-15T11:37:57.958Z,95057.47
2019-06-15T11:40:29.166Z,95056.41
2019-06-15T11:43:00.410Z,95060.09
2019-06-15T11:45:31.516Z,95052.23
2019-06-15T11:48:02.540Z,95061.92
2019-06-15T11:50:33.852Z,95054.06
2019-06-15T11:53:05.065Z,95038.30
2019-06-15T11:55:39.598Z,95043.43
2019-06-15T11:58:08.702Z,95041.80
2019-06-15T12:00:41.522Z,95037.97
2019-06-15T12:03:12.866Z,95029.97
2019-06-15T12:05:43.756Z,95037.46
2019-06-15T12:08:14.962Z,95030.41
2019-06-15T12:10:46.091Z,95027.52
2019-06-15T12:13:17.343Z,95018.49
2019-06-15T12:15:48.228Z,95018.95
2019-06-15T12:18:19.336Z,95018.91
2019-06-15T12:20:50.313Z,95014.05
2019-06-15T12:23:21.552Z,95008.02
2019-06-15T12:25:52.813Z,95011.00
2019-06-15T12:28:24.125Z,95003.63
2019-06-15T12:30:55.365Z,95011.16
2019-06-15T12:33:26.877Z,95001.42
2019-06-15T12:35:58.039Z,95001.31
2019-06-15T12:38:29.655Z,95004.41
2019-06-15T12:41:00.790Z,95011.25
2019-06-15T12:43:32.409Z,95006.91
2019-06-15T12:46:04.032Z,95010.78
2019-06-15T12:48:35.176Z,95013.04
2019-06-15T12:51:06.562Z,95006.56
2019-06-15T12:53:37.584Z,95003.94
2019-06-15T12:56:08.402Z,95006.69
2019-06-15T12:58:39.659Z,95001.65
2019-06-15T13:01:10.819Z,95008.44
2019-06-15T13:03:41.820Z,95008.23
2019-06-15T13:06:13.921Z,95021.86
2019-06-15T13:08:45.434Z,95005.41
2019-06-15T13:11:16.691Z,95002.77
2019-06-15T13:13:47.774Z,95002.22
2019-06-15T13:16:18.636Z,94994.95
2019-06-15T13:18:49.914Z,94986.78
2019-06-15T13:21:21.158Z,94980.05
2019-06-15T13:23:52.446Z,94990.28
2019-06-15T13:26:23.673Z,94988.32
2019-06-15T13:28:54.931Z,94986.53
2019-06-15T13:31:26.018Z,94986.75
2019-06-15T13:33:56.892Z,94980.41
2019-06-15T13:36:28.086Z,94987.50
2019-06-15T13:38:59.009Z,94987.49
2019-06-15T13:41:29.854Z,94985.14
2019-06-15T13:44:01.227Z,94987.54
2019-06-15T13:46:32.714Z,94978.70
2019-06-15T13:49:03.990Z,94983.02
2019-06-15T13:51:34.996Z,94981.95
2019-06-15T13:54:06.178Z,94977.11
2019-06-15T13:56:37.178Z,94979.78
2019-06-15T13:59:08.403Z,94978.91
2019-06-15T14:01:39.391Z,94985.89
2019-06-15T14:04:10.458Z,94983.53
2019-06-15T14:06:41.678Z,94992.59
2019-06-15T14:09:12.722Z,94988.84
2019-06-15T14:11:43.615Z,94990.42
2019-06-15T14:14:14.936Z,94992.56
2019-06-15T14:16:45.889Z,94990.97
2019-06-15T14:19:16.800Z,94988.30
2019-06-15T14:21:47.694Z,94981.05
2019-06-15T14:24:18.692Z,94971.63
2019-06-15T14:26:49.686Z,94977.89
2019-06-15T14:29:20.669Z,94971.73
2019-06-15T14:31:51.559Z,94982.83
2019-06-15T14:34:22.537Z,94983.14
2019-06-15T14:36:53.499Z,94975.91
2019-06-15T14:39:24.881Z,94965.95
2019-06-15T14:41:55.870Z,94970.26
2019-06-15T14:44:26.891Z,94968.35
2019-06-15T14:46:57.768Z,94972.64
2019-06-15T14:49:28.808Z,94974.26
2019-06-15T14:51:59.966Z,94968.63
2019-06-15T14:54:30.872Z,94966.70
2019-06-15T14:57:02.027Z,94968.63
2019-06-15T14:59:46.432Z,94965.37
2019-06-15T15:02:10.956Z,94970.28
2019-06-15T15:04:38.802Z,94965.64
2019-06-15T15:07:10.365Z,94971.85
2019-06-15T15:09:41.363Z,94974.20
2019-06-15T15:12:16.010Z,94974.22
2019-06-15T15:14:47.026Z,94975.05
2019-06-15T15:17:17.918Z,94975.58
2019-06-15T15:19:48.984Z,94966.73
2019-06-15T15:22:20.227Z,94969.16
2019-06-15T15:24:51.227Z,94962.21
2019-06-15T15:27:22.238Z,94967.58
2019-06-15T15:29:53.246Z,94975.07
2019-06-15T15:32:31.001Z,94971.59
2019-06-15T15:34:57.071Z,94965.45
2019-06-15T15:37:28.443Z,94974.03
2019-06-15T15:39:59.536Z,94974.86
2019-06-15T15:42:30.409Z,94963.58
2019-06-15T15:45:01.423Z,94967.33
2019-06-15T15:47:32.481Z,94964.91
2019-06-15T15:50:03.348Z,94954.70
2019-06-15T15:52:37.178Z,94964.90
2019-06-15T15:55:09.417Z,94975.42
2019-06-15T15:57:40.403Z,94977.31
2019-06-15T16:00:16.454Z,94974.61
2019-06-15T16:02:51.723Z,94980.00
2019-06-15T16:05:19.657Z,94979.20
2019-06-15T16:07:50.815Z,94981.06
2019-06-15T16:10:21.931Z,94977.56
2019-06-15T16:12:53.065Z,94986.16
2019-06-15T16:15:26.555Z,94984.30
2019-06-15T16:17:57.134Z,94983.48
2019-06-15T16:20:28.176Z,94993.16
2019-06-15T16:22:59.478Z,94987.23
2019-06-15T16:25:30.627Z,94983.48
2019-06-15T16:28:02.039Z,94990.47
2019-06-15T16:30:59.814Z,94990.47
2019-06-15T16:33:08.111Z,94995.83
2019-06-15T16:35:40.184Z,94994.46
2019-06-15T16:38:11.200Z,94996.88
2019-06-15T16:40:42.383Z,94987.19
2019-06-15T16:43:13.514Z,94993.86
2019-06-15T16:45:46.643Z,94991.45
2019-06-15T16:48:17.398Z,94986.05
2019-06-15T16:50:48.441Z,94994.34
2019-06-15T16:53:19.606Z,94998.06
2019-06-15T16:55:50.709Z,94992.05
2019-06-15T16:58:21.961Z,94991.77
2019-06-15T17:00:53.069Z,94988.20
2019-06-15T17:03:26.184Z,94990.05
2019-06-15T17:05:58.228Z,94979.33
2019-06-15T17:08:29.561Z,94975.04
2019-06-15T17:11:00.757Z,94972.84
2019-06-15T17:13:31.697Z,94980.28
2019-06-15T17:16:03.133Z,94971.91
2019-06-15T17:18:36.235Z,94984.13
2019-06-15T17:21:07.157Z,94979.30
2019-06-15T17:23:38.600Z,94982.17
2019-06-15T17:26:09.566Z,94980.91
2019-06-15T17:28:40.467Z,94980.64
2019-06-15T17:31:11.741Z,94984.09
2019-06-15T17:33:43.287Z,94979.03
2019-06-15T17:36:14.543Z,94974.22
2019-06-15T17:38:46.254Z,94970.50
2019-06-15T17:41:17.486Z,94977.43
2019-06-15T17:43:48.546Z,94979.61
2019-06-15T17:46:19.528Z,94979.27
2019-06-15T17:48:50.431Z,94982.17
2019-06-15T17:51:21.529Z,94981.67
2019-06-15T17:53:52.509Z,94980.83
2019-06-15T17:56:23.462Z,94979.72
2019-06-15T17:58:54.324Z,94989.62
2019-06-15T18:01:26.558Z,94984.23
2019-06-15T18:03:58.280Z,94986.01
2019-06-15T18:06:30.313Z,94974.95
2019-06-15T18:09:01.667Z,94986.81
2019-06-15T18:11:37.390Z,94982.00
2019-06-15T18:14:06.902Z,94991.94
2019-06-15T18:16:38.434Z,94987.66
2019-06-15T18:19:09.422Z,94990.03
2019-06-15T18:21:41.574Z,94990.56
2019-06-15T18:24:12.573Z,94987.05
2019-06-15T18:26:43.787Z,94989.19
2019-06-15T18:29:16.764Z,94996.40
2019-06-15T18:31:47.484Z,94992.16
2019-06-15T18:34:18.504Z,94988.52
2019-06-15T18:36:49.370Z,94991.19
2019-06-15T18:39:20.557Z,94992.86
2019-06-15T18:41:51.508Z,94993.40
2019-06-15T18:44:22.572Z,94993.40
2019-06-15T18:46:56.424Z,94995.85
2019-06-15T18:49:27.380Z,94993.87
2019-06-15T18:51:58.458Z,94992.99
2019-06-15T18:54:29.467Z,94992.99
2019-06-15T18:57:00.414Z,95003.20
2019-06-15T18:59:31.387Z,95008.00
2019-06-15T19:02:02.347Z,95008.00
2019-06-15T19:04:33.183Z,95015.82
2019-06-15T19:07:06.505Z,95024.06
2019-06-15T19:09:37.231Z,95023.58
2019-06-15T19:12:08.101Z,95029.40
2019-06-15T19:14:39.033Z,95027.06
2019-06-15T19:17:10.385Z,95028.55
2019-06-15T19:19:41.290Z,95023.16
2019-06-15T19:22:14.056Z,95022.61
2019-06-15T19:24:49.992Z,95022.61
2019-06-15T19:27:18.013Z,95026.03
2019-06-15T19:29:48.959Z,95025.55
2019-06-15T19:32:19.990Z,95024.64
2019-06-15T19:34:51.322Z,95029.70
2019-06-15T19:37:22.203Z,95038.19
2019-06-15T19:39:53.183Z,95038.11
2019-06-15T19:42:26.005Z,95041.53
2019-06-15T19:44:57.221Z,95046.87
2019-06-15T19:47:28.501Z,95042.31
2019-06-15T19:49:59.666Z,95036.98
2019-06-15T19:52:31.077Z,95039.63
2019-06-15T19:55:02.465Z,95038.88
2019-06-15T19:57:36.004Z,95034.27
2019-06-15T20:00:07.487Z,95037.67
2019-06-15T20:02:38.513Z,95038.53
2019-06-15T20:05:10.663Z,95043.34
2019-06-15T20:07:41.911Z,95042.08
2019-06-15T20:10:14.626Z,95044.98
2019-06-15T20:12:46.627Z,95042.30
2019-06-15T20:15:17.892Z,95046.42
2019-06-15T20:17:49.299Z,95050.42
2019-06-15T20:20:20.545Z,95048.73
2019-06-15T20:22:51.754Z,95041.42
2019-06-15T20:25:22.578Z,95041.13
2019-06-15T20:27:56.237Z,95041.59
2019-06-15T20:30:26.602Z,95043.22
2019-06-15T20:32:57.572Z,95041.52
2019-06-15T20:35:28.610Z,95047.00
2019-06-15T20:37:59.696Z,95039.66
2019-06-15T20:40:30.856Z,95030.04
2019-06-15T20:43:01.810Z,95043.22
2019-06-15T20:45:33.891Z,95046.66
2019-06-15T20:48:06.823Z,95046.66
2019-06-15T20:50:37.757Z,95042.23
2019-06-15T20:53:08.845Z,95058.06
2019-06-15T20:55:40.056Z,95056.53
2019-06-15T20:58:11.102Z,95052.91
2019-06-15T21:00:42.059Z,95052.91
2019-06-15T21:03:13.190Z,95046.02
2019-06-15T21:05:44.204Z,95046.20
2019-06-15T21:08:15.977Z,95041.19
2019-06-15T21:10:46.977Z,95041.19
2019-06-15T21:13:17.961Z,95034.95
2019-06-15T21:15:49.600Z,95039.85
2019-06-15T21:18:20.744Z,95039.85
2019-06-15T21:20:51.784Z,95035.76
2019-06-15T21:23:22.882Z,95046.66
2019-06-15T21:25:54.010Z,95046.66
2019-06-15T21:28:27.185Z,95040.52
2019-06-15T21:30:57.625Z,95046.13
2019-06-15T21:33:28.622Z,95050.65
2019-06-15T21:35:59.514Z,95038.55
2019-06-15T21:38:30.725Z,95040.92
2019-06-15T21:41:01.980Z,95043.06
2019-06-15T21:43:33.043Z,95041.41
2019-06-15T21:46:06.302Z,95043.08
2019-06-15T21:48:37.089Z,95042.13
2019-06-15T21:51:08.629Z,95043.86
2019-06-15T21:53:39.961Z,95042.70
2019-06-15T21:56:11.102Z,95043.61
2019-06-15T21:58:42.833Z,95045.89
2019-06-15T22:01:22.405Z,95050.64
2019-06-15T22:03:53.874Z,95035.89
2019-06-15T22:06:26.251Z,95041.67
2019-06-15T22:08:58.005Z,95041.38
2019-06-15T22:11:29.099Z,95041.17
2019-06-15T22:14:00.270Z,95034.95
2019-06-15T22:16:31.455Z,95019.02
2019-06-15T22:19:03.035Z,95027.94
2019-06-15T22:21:36.619Z,95030.72
2019-06-15T22:24:07.559Z,95030.02
2019-06-15T22:26:38.948Z,95025.77
2019-06-15T22:29:10.795Z,95028.83
2019-06-15T22:31:42.123Z,95035.91
2019-06-15T22:34:16.066Z,95038.23
2019-06-15T22:36:47.926Z,95032.88
2019-06-15T22:39:19.412Z,95027.42
2019-06-15T22:41:50.696Z,95021.08
2019-06-15T22:44:22.077Z,95018.08
2019-06-15T22:46:53.270Z,95021.56
2019-06-15T22:49:24.911Z,95014.58
2019-06-15T22:51:56.904Z,95006.99
2019-06-15T22:54:29.065Z,95004.95
2019-06-15T22:57:00.163Z,95000.55
2019-06-15T22:59:31.513Z,94997.69
2019-06-15T23:02:02.443Z,95003.37
2019-06-15T23:04:33.528Z,94997.03
2019-06-15T23:07:06.796Z,94993.72
2019-06-15T23:09:37.574Z,94995.61
2019-06-15T23:12:08.734Z,94990.88
2019-06-15T23:14:41.051Z,94997.02
2019-06-15T23:17:12.174Z,94990.75
2019-06-15T23:19:45.977Z,94980.92
2019-06-15T23:22:17.179Z,94983.45
2019-06-15T23:24:48.179Z,94986.75
2019-06-15T23:27:19.631Z,94989.40
2019-06-15T23:29:50.683Z,94992.44
2019-06-15T23:32:22.033Z,94987.46
2019-06-15T23:34:56.384Z,94993.24
2019-06-15T23:37:27.530Z,95001.36
2019-06-15T23:40:16.360Z,94994.92
2019-06-15T23:42:47.959Z,94988.84
2019-06-15T23:45:20.526Z,94987.58
2019-06-15T23:47:51.890Z,94989.23
2019-06-15T23:50:26.404Z,95001.00
2019-06-15T23:52:58.156Z,95000.16
2019-06-15T23:55:29.603Z,94997.86
2019-06-15T23:58:00.848Z,94995.27
